Date,TemperatureHighF,TemperatureAvgF,TemperatureLowF,DewpointHighF,DewpointAvgF,DewpointLowF,HumidityHigh,HumidityAvg,HumidityLow,PressureMaxIn,PressureMinIn,WindSpeedMaxMPH,WindSpeedAvgMPH,GustSpeedMaxMPH,PrecipitationSumIn
2013-2-1,43,32,23,24,11,2,59,42,23,30.23,29.92,5,2,9,0.00
2013-2-2,38,29,20,32,19,7,86,67,32,30.22,29.95,4,1,6,0.00
2013-2-3,53,38,30,33,26,18,91,63,34,29.99,29.85,5,2,14,0.23
2013-2-4,49,37,26,25,21,17,72,54,33,30.00,29.85,2,0,4,0.00
2013-2-5,63,46,40,41,31,22,76,57,33,29.92,29.81,4,1,6,0.00
2013-2-6,68,46,32,38,27,19,79,54,20,30.08,29.91,3,0,6,0.00
2013-2-7,50,44,36,42,34,25,81,68,58,30.04,29.83,3,0,6,0.16
2013-2-8,60,46,36,46,37,25,87,72,45,30.10,29.79,5,2,8,0.09
2013-2-9,67,44,29,27,23,10,73,50,13,30.18,30.05,3,1,5,0.00
2013-2-10,56,48,39,47,30,13,82,52,20,30.16,29.94,5,2,15,0.94
2013-2-11,56,51,42,51,45,37,89,78,58,30.03,29.92,3,0,5,0.17
2013-2-12,52,44,36,38,32,25,82,65,36,30.02,29.74,2,0,3,0.17
2013-2-13,48,44,36,42,36,28,84,75,66,29.85,29.57,4,1,8,0.05
2013-2-14,59,43,33,30,26,22,71,54,30,29.95,29.85,3,1,5,0.00
2013-2-15,61,42,28,35,26,19,74,58,22,29.99,29.86,5,1,12,0.00
2013-2-16,43,34,25,26,16,6,71,51,30,29.98,29.84,5,2,12,0.00
2013-2-17,49,31,18,12,8,4,56,40,22,30.13,29.97,5,1,8,0.00
2013-2-18,61,40,23,22,15,11,63,40,20,30.20,29.96,5,2,13,0.00
2013-2-19,59,44,32,38,23,7,79,48,22,30.03,29.85,4,2,10,0.30
2013-2-20,51,36,25,17,9,0,58,36,14,30.06,29.99,4,1,6,0.00
2013-2-21,67,44,26,34,16,4,69,39,9,30.05,29.82,3,1,7,0.53
2013-2-22,50,46,43,40,37,34,80,70,61,30.01,29.89,4,1,10,0.61
2013-2-23,58,50,44,48,43,38,82,78,66,29.90,29.71,3,0,5,0.56
2013-2-24,66,46,33,38,27,17,82,54,20,29.92,29.80,4,1,6,0.00
2013-2-25,54,42,33,37,27,22,72,57,34,29.91,29.70,4,1,8,0.00
2013-2-26,56,47,39,43,37,28,83,68,54,29.70,29.38,6,3,12,0.86
2013-2-27,59,44,38,32,28,24,72,53,30,29.74,29.61,4,2,9,0.00
2013-2-28,41,37,34,26,21,19,59,53,48,29.85,29.69,3,1,8,0.00